createdAt,value
2022-10-11T00:01:51.539Z,69.25
2022-10-11T00:04:18.925Z,69.39
2022-10-11T00:06:47.241Z,69.18
2022-10-11T00:09:14.696Z,69.08
2022-10-11T00:11:42.102Z,69.44
2022-10-11T00:14:09.571Z,69.42
2022-10-11T00:16:38.517Z,69.36
2022-10-11T00:19:07.591Z,69.64
2022-10-11T00:21:34.977Z,69.33
2022-10-11T00:24:02.364Z,69.56
2022-10-11T00:26:29.793Z,68.94
2022-10-11T00:28:57.316Z,69.29
2022-10-11T00:31:24.730Z,69.32
2022-10-11T00:33:52.116Z,69.37
2022-10-11T00:36:21.053Z,69.47
2022-10-11T00:38:48.434Z,69.33
2022-10-11T00:41:15.835Z,69.31
2022-10-11T00:43:43.284Z,68.75
2022-10-11T00:46:27.187Z,69.14
2022-10-11T00:48:57.110Z,68.94
2022-10-11T00:51:28.131Z,69.13
2022-10-11T00:53:55.514Z,68.93
2022-10-11T00:56:24.407Z,69.28
2022-10-11T00:58:51.820Z,68.99
2022-10-11T01:01:19.261Z,69.23
2022-10-11T01:03:46.678Z,69.42
2022-10-11T01:06:14.070Z,69.30
2022-10-11T01:08:42.754Z,69.14
2022-10-11T01:11:10.841Z,68.88
2022-10-11T01:13:44.588Z,69.29
2022-10-11T01:16:14.471Z,69.23
2022-10-11T01:18:45.251Z,68.92
2022-10-11T01:21:15.667Z,69.28
2022-10-11T01:23:54.314Z,69.25
2022-10-11T01:26:35.161Z,69.30
2022-10-11T01:29:08.081Z,69.20
2022-10-11T01:31:39.044Z,69.07
2022-10-11T01:34:07.330Z,69.12
2022-10-11T01:36:35.482Z,69.38
2022-10-11T01:39:04.272Z,68.82
2022-10-11T01:44:01.183Z,68.76
2022-10-11T01:46:28.767Z,68.85
2022-10-11T01:48:58.462Z,68.80
2022-10-11T01:51:26.831Z,69.04
2022-10-11T01:54:12.846Z,68.86
2022-10-11T01:57:00.381Z,68.87
2022-10-11T01:59:35.513Z,69.13
2022-10-11T02:02:07.521Z,68.78
2022-10-11T02:04:38.519Z,68.91
2022-10-11T02:07:07.527Z,69.08
2022-10-11T02:09:37.201Z,68.97
2022-10-11T02:12:08.020Z,68.98
2022-10-11T02:14:36.397Z,69.26
2022-10-11T02:17:07.524Z,68.96
2022-10-11T02:19:38.451Z,69.14
2022-10-11T02:22:08.855Z,68.90
2022-10-11T02:24:37.281Z,68.86
2022-10-11T02:27:05.097Z,69.19
2022-10-11T02:29:33.729Z,69.21
2022-10-11T02:32:01.351Z,68.51
2022-10-11T02:34:29.992Z,69.00
2022-10-11T02:37:00.267Z,68.39
2022-10-11T02:39:29.701Z,68.75
2022-10-11T02:41:57.172Z,68.47
2022-10-11T02:44:26.592Z,68.51
2022-10-11T02:46:53.980Z,69.03
2022-10-11T02:49:21.472Z,68.88
2022-10-11T02:51:48.913Z,68.86
2022-10-11T02:54:17.650Z,68.61
2022-10-11T02:56:45.036Z,69.06
2022-10-11T02:59:13.669Z,68.91
2022-10-11T03:01:41.413Z,68.82
2022-10-11T03:04:08.872Z,69.06
2022-10-11T03:06:36.272Z,68.97
2022-10-11T03:09:03.686Z,68.73
2022-10-11T03:11:32.350Z,68.89
2022-10-11T03:13:59.738Z,68.88
2022-10-11T03:16:27.138Z,68.91
2022-10-11T03:18:54.516Z,68.87
2022-10-11T03:21:21.902Z,68.65
2022-10-11T03:23:49.604Z,68.31
2022-10-11T03:26:16.989Z,68.74
2022-10-11T03:28:45.787Z,68.66
2022-10-11T03:31:13.220Z,68.39
2022-10-11T03:33:40.596Z,68.51
2022-10-11T03:36:09.084Z,68.64
2022-10-11T03:38:36.610Z,68.91
2022-10-11T03:41:03.987Z,68.92
2022-10-11T03:43:31.387Z,68.88
2022-10-11T03:46:00.040Z,68.79
2022-10-11T03:48:27.499Z,69.06
2022-10-11T03:50:54.892Z,68.89
2022-10-11T03:53:22.299Z,68.70
2022-10-11T03:55:52.948Z,68.99
2022-10-11T03:58:20.327Z,68.95
2022-10-11T04:00:47.726Z,68.74
2022-10-11T04:03:16.403Z,68.59
2022-10-11T04:05:43.801Z,68.81
2022-10-11T04:08:12.301Z,68.59
2022-10-11T04:10:39.950Z,68.80
2022-10-11T04:13:07.377Z,68.95
2022-10-11T04:15:34.804Z,68.93
2022-10-11T04:18:02.181Z,68.80
2022-10-11T04:20:30.842Z,68.91
2022-10-11T04:22:58.230Z,69.12
2022-10-11T04:25:25.608Z,68.60
2022-10-11T04:27:52.989Z,68.71
2022-10-11T04:30:20.376Z,68.42
2022-10-11T04:32:47.830Z,68.22
2022-10-11T04:35:15.274Z,68.06
2022-10-11T04:37:44.063Z,68.02
2022-10-11T04:40:12.875Z,68.27
2022-10-11T04:42:40.250Z,68.26
2022-10-11T04:45:09.349Z,68.12
2022-10-11T04:47:36.726Z,68.64
2022-10-11T04:50:45.388Z,68.83
2022-10-11T04:53:53.490Z,68.37
2022-10-11T04:56:22.975Z,68.32
2022-10-11T04:58:57.628Z,68.29
2022-10-11T05:01:25.143Z,68.16
2022-10-11T05:04:00.003Z,68.72
2022-10-11T05:06:46.671Z,68.65
2022-10-11T05:09:46.474Z,68.65
2022-10-11T05:12:31.643Z,68.58
2022-10-11T05:15:39.877Z,68.48
2022-10-11T05:18:43.470Z,68.63
2022-10-11T05:21:38.584Z,68.42
2022-10-11T05:24:21.060Z,68.54
2022-10-11T05:55:27.014Z,72.64
2022-10-11T06:02:51.875Z,71.76
2022-10-11T06:05:19.278Z,72.31
2022-10-11T06:07:46.736Z,71.68
2022-10-11T06:10:14.117Z,71.46
2022-10-11T06:12:42.778Z,71.33
2022-10-11T06:15:11.255Z,71.02
2022-10-11T06:17:38.643Z,70.95
2022-10-11T06:20:06.918Z,70.54
2022-10-11T06:22:34.334Z,70.60
2022-10-11T06:25:01.725Z,70.25
2022-10-11T06:27:29.095Z,69.96
2022-10-11T06:29:57.758Z,70.19
2022-10-11T06:32:25.156Z,70.22
2022-10-11T06:34:52.545Z,69.81
2022-10-11T06:37:20.311Z,69.62
2022-10-11T06:42:35.192Z,69.43
2022-10-11T06:45:04.026Z,69.37
2022-10-11T06:47:31.425Z,69.30
2022-10-11T06:49:58.838Z,69.23
2022-10-11T06:52:26.240Z,68.99
2022-10-11T06:54:53.648Z,69.14
2022-10-11T06:57:21.046Z,69.09
2022-10-11T06:59:48.439Z,68.88
2022-10-11T07:02:17.116Z,68.69
2022-10-11T07:04:44.526Z,68.70
2022-10-11T07:07:13.814Z,68.65
2022-10-11T07:09:41.220Z,68.67
2022-10-11T07:12:09.096Z,68.85
2022-10-11T07:14:36.501Z,68.57
2022-10-11T07:17:03.914Z,68.55
2022-10-11T07:19:32.614Z,68.59
2022-10-11T07:22:00.029Z,68.39
2022-10-11T07:24:27.493Z,68.40
2022-10-11T07:26:54.908Z,68.26
2022-10-11T07:29:22.307Z,68.15
2022-10-11T07:31:49.723Z,68.12
2022-10-11T07:34:17.998Z,68.23
2022-10-11T07:36:46.802Z,68.15
2022-10-11T07:39:14.413Z,68.03
2022-10-11T07:41:45.630Z,68.04
2022-10-11T07:44:13.626Z,68.16
2022-10-11T07:46:41.012Z,68.21
2022-10-11T07:49:08.411Z,67.92
2022-10-11T07:51:35.806Z,67.94
2022-10-11T07:54:07.258Z,68.16
2022-10-11T07:56:35.028Z,68.04
2022-10-11T07:59:03.442Z,67.99
2022-10-11T08:01:31.278Z,68.05
2022-10-11T08:03:58.893Z,67.97
2022-10-11T08:06:29.234Z,67.82
2022-10-11T08:08:57.205Z,67.83
2022-10-11T08:11:26.927Z,67.71
2022-10-11T08:13:54.447Z,67.82
2022-10-11T08:16:22.124Z,67.78
2022-10-11T08:18:49.536Z,67.49
2022-10-11T08:21:17.703Z,67.45
2022-10-11T08:23:45.139Z,67.39
2022-10-11T08:26:12.536Z,67.37
2022-10-11T08:28:41.252Z,67.15
2022-10-11T08:31:08.693Z,67.22
2022-10-11T08:33:36.092Z,67.15
2022-10-11T08:36:05.463Z,67.33
2022-10-11T08:38:33.246Z,67.35
2022-10-11T08:41:00.764Z,67.30
2022-10-11T08:43:32.801Z,67.41
2022-10-11T08:46:02.943Z,67.15
2022-10-11T08:48:33.711Z,67.23
2022-10-11T08:51:01.295Z,67.49
2022-10-11T08:53:36.031Z,67.26
2022-10-11T08:56:03.751Z,67.32
2022-10-11T08:58:44.394Z,67.45
2022-10-11T09:01:15.420Z,67.44
2022-10-11T09:03:43.442Z,67.22
2022-10-11T09:06:16.081Z,67.30
2022-10-11T09:08:54.971Z,67.33
2022-10-11T09:11:25.579Z,67.50
2022-10-11T09:14:04.256Z,67.55
2022-10-11T09:16:39.939Z,67.37
2022-10-11T09:19:19.204Z,67.18
2022-10-11T09:21:48.554Z,67.01
2022-10-11T09:24:38.761Z,66.76
2022-10-11T09:27:08.679Z,66.54
2022-10-11T09:29:47.365Z,66.84
2022-10-11T09:32:18.100Z,67.02
2022-10-11T09:34:45.524Z,66.73
2022-10-11T09:37:18.762Z,66.38
2022-10-11T09:39:47.961Z,66.06
2022-10-11T09:42:15.366Z,66.51
2022-10-11T09:44:47.700Z,66.16
2022-10-11T09:47:17.906Z,66.35
2022-10-11T09:49:47.554Z,65.64
2022-10-11T09:52:16.477Z,65.43
2022-10-11T09:54:44.860Z,65.45
2022-10-11T09:57:23.033Z,64.54
2022-10-11T10:00:02.458Z,64.67
2022-10-11T10:02:41.815Z,63.92
2022-10-11T10:05:18.121Z,64.19
2022-10-11T10:08:13.592Z,64.23
2022-10-11T10:10:41.492Z,63.54
2022-10-11T10:13:19.877Z,63.36
2022-10-11T10:15:48.117Z,62.71
2022-10-11T10:18:21.592Z,62.55
2022-10-11T10:20:52.151Z,62.89
2022-10-11T10:23:21.075Z,62.87
2022-10-11T10:25:51.095Z,62.58
2022-10-11T10:28:20.509Z,62.59
2022-10-11T10:30:54.186Z,62.27
2022-10-11T10:33:23.351Z,62.54
2022-10-11T10:35:52.102Z,62.23
2022-10-11T10:38:25.524Z,62.44
2022-10-11T10:40:54.464Z,62.76
2022-10-11T10:43:22.684Z,62.23
2022-10-11T10:46:09.145Z,61.53
2022-10-11T10:49:19.182Z,61.50
2022-10-11T10:51:37.354Z,61.61
2022-10-11T10:54:07.148Z,60.73
2022-10-11T10:56:35.923Z,60.91
2022-10-11T10:59:14.100Z,60.96
2022-10-11T11:01:46.625Z,60.86
2022-10-11T11:04:19.827Z,60.57
2022-10-11T11:06:49.232Z,60.35
2022-10-11T11:09:25.341Z,60.17
2022-10-11T11:11:57.312Z,60.35
2022-10-11T11:14:30.268Z,61.13
2022-10-11T11:17:01.758Z,60.66
2022-10-11T11:19:38.299Z,61.25
2022-10-11T11:22:07.641Z,61.37
2022-10-11T11:24:39.515Z,61.10
2022-10-11T11:27:09.179Z,61.04
2022-10-11T11:29:43.480Z,61.60
2022-10-11T11:32:15.307Z,61.38
2022-10-11T11:34:44.962Z,61.22
2022-10-11T11:37:26.986Z,60.77
2022-10-11T11:39:55.395Z,61.07
2022-10-11T11:42:24.365Z,61.21
2022-10-11T11:44:52.077Z,60.60
2022-10-11T11:47:21.403Z,61.03
2022-10-11T11:49:52.149Z,60.80
2022-10-11T11:52:22.387Z,59.78
2022-10-11T11:54:51.640Z,59.79
2022-10-11T11:57:25.931Z,59.84
2022-10-11T11:59:57.448Z,59.56
2022-10-11T12:02:39.956Z,59.86
2022-10-11T12:05:09.048Z,59.03
2022-10-11T12:07:48.983Z,59.04
2022-10-11T12:10:19.338Z,58.90
2022-10-11T12:12:47.295Z,58.11
2022-10-11T12:15:21.086Z,59.07
2022-10-11T12:18:03.208Z,58.58
2022-10-11T12:20:32.250Z,57.63
2022-10-11T12:23:00.882Z,57.73
2022-10-11T12:25:42.173Z,58.18
2022-10-11T12:29:01.733Z,57.76
2022-10-11T12:31:29.980Z,59.53
2022-10-11T12:34:18.364Z,57.42
2022-10-11T12:36:47.549Z,57.48
2022-10-11T12:39:52.480Z,57.69
2022-10-11T12:42:27.876Z,57.71
2022-10-11T12:45:25.923Z,57.50
2022-10-11T12:47:54.337Z,57.23
2022-10-11T12:50:22.479Z,58.12
2022-10-11T12:52:55.527Z,57.68
2022-10-11T12:55:38.497Z,57.09
2022-10-11T12:58:20.406Z,57.45
2022-10-11T13:01:10.053Z,57.37
2022-10-11T13:03:38.936Z,57.68
2022-10-11T13:06:11.980Z,57.85
2022-10-11T13:08:43.010Z,57.57
2022-10-11T13:11:11.173Z,57.43
2022-10-11T13:13:39.512Z,57.23
2022-10-11T13:16:09.346Z,57.55
2022-10-11T13:18:36.777Z,57.38
2022-10-11T13:21:20.291Z,57.46
2022-10-11T13:23:55.217Z,57.08
2022-10-11T13:26:22.621Z,57.24
2022-10-11T13:28:50.038Z,57.29
2022-10-11T13:31:17.464Z,56.82
2022-10-11T13:33:44.848Z,56.75
2022-10-11T13:36:14.453Z,56.76
2022-10-11T13:38:41.843Z,56.22
2022-10-11T13:41:10.572Z,56.32
2022-10-11T13:43:38.553Z,55.37
2022-10-11T13:46:06.432Z,55.44
2022-10-11T13:48:39.545Z,55.48
2022-10-11T13:51:07.958Z,54.84
2022-10-11T13:53:35.413Z,55.16
2022-10-11T13:56:04.297Z,55.10
2022-10-11T13:58:36.031Z,55.32
2022-10-11T14:01:04.545Z,56.42
2022-10-11T14:03:38.346Z,55.63
2022-10-11T14:06:06.081Z,55.79
2022-10-11T14:08:36.326Z,55.88
2022-10-11T14:11:06.571Z,56.49
2022-10-11T14:13:36.622Z,55.28
2022-10-11T14:16:06.418Z,55.24
2022-10-11T14:18:40.987Z,55.09
2022-10-11T14:21:28.563Z,55.23
2022-10-11T14:23:56.801Z,55.42
2022-10-11T14:26:24.224Z,54.76
2022-10-11T14:28:55.139Z,55.09
2022-10-11T14:31:25.933Z,55.64
2022-10-11T14:33:53.676Z,56.16
2022-10-11T14:36:22.964Z,54.53
2022-10-11T14:38:50.346Z,55.59
2022-10-11T14:41:17.869Z,55.91
2022-10-11T14:43:45.288Z,55.47
2022-10-11T14:46:20.548Z,55.24
2022-10-11T14:48:55.475Z,55.59
2022-10-11T14:51:25.368Z,54.31
2022-10-11T14:53:52.761Z,54.62
2022-10-11T14:56:21.675Z,54.40
2022-10-11T14:58:49.429Z,55.31
2022-10-11T15:01:18.298Z,54.51
2022-10-11T15:03:45.740Z,54.03
2022-10-11T15:06:17.334Z,54.20
2022-10-11T15:08:44.732Z,53.81
2022-10-11T15:11:12.307Z,54.35
2022-10-11T15:13:39.683Z,54.83
2022-10-11T15:16:08.059Z,54.87
2022-10-11T15:18:36.918Z,54.60
2022-10-11T15:21:04.442Z,54.75
2022-10-11T15:23:31.826Z,54.69
2022-10-11T15:25:59.258Z,54.64
2022-10-11T15:28:27.901Z,55.77
2022-10-11T15:30:55.339Z,55.22
2022-10-11T15:33:23.003Z,55.47
2022-10-11T15:35:51.740Z,55.61
2022-10-11T15:38:19.908Z,55.05
2022-10-11T15:40:47.474Z,54.96
2022-10-11T15:43:14.941Z,55.13
2022-10-11T15:45:42.390Z,55.74
2022-10-11T15:48:11.251Z,55.47
2022-10-11T15:50:38.688Z,54.55
2022-10-11T15:53:08.627Z,56.74
2022-10-11T15:55:37.820Z,56.06
2022-10-11T15:58:05.224Z,55.33
2022-10-11T16:00:32.704Z,54.08
2022-10-11T16:03:00.099Z,53.96
2022-10-11T16:05:27.741Z,55.75
2022-10-11T16:07:55.142Z,55.18
2022-10-11T16:10:23.796Z,54.58
2022-10-11T16:12:51.202Z,54.62
2022-10-11T16:15:18.615Z,54.40
2022-10-11T16:17:46.472Z,54.46
2022-10-11T16:20:14.191Z,54.70
2022-10-11T16:22:42.006Z,54.82
2022-10-11T16:25:09.409Z,55.06
2022-10-11T16:27:38.168Z,55.34
2022-10-11T16:30:06.045Z,55.27
2022-10-11T16:32:33.799Z,55.12
2022-10-11T16:35:01.199Z,55.48
2022-10-11T16:37:28.624Z,55.81
2022-10-11T16:39:56.021Z,55.68
2022-10-11T16:42:23.411Z,55.75
2022-10-11T16:44:52.167Z,55.45
2022-10-11T16:47:19.538Z,55.81
2022-10-11T16:49:46.947Z,55.88
2022-10-11T16:52:14.775Z,56.02
2022-10-11T16:54:44.234Z,55.81
2022-10-11T16:57:11.651Z,56.04
2022-10-11T16:59:39.060Z,56.07
2022-10-11T17:02:09.690Z,56.06
2022-10-11T17:04:37.096Z,56.29
2022-10-11T17:07:04.489Z,56.54
2022-10-11T17:09:31.873Z,56.58
2022-10-11T17:11:59.259Z,56.55
2022-10-11T17:14:26.648Z,56.95
2022-10-11T17:16:54.032Z,56.84
2022-10-11T17:19:22.723Z,56.94
2022-10-11T17:21:50.114Z,56.68
2022-10-11T17:24:17.484Z,56.80
2022-10-11T17:26:44.864Z,56.93
2022-10-11T17:29:13.189Z,56.99
2022-10-11T17:31:40.562Z,57.17
2022-10-11T17:34:07.963Z,57.25
2022-10-11T17:36:36.630Z,56.87
2022-10-11T17:39:06.240Z,57.13
2022-10-11T17:41:33.708Z,57.35
2022-10-11T17:44:01.783Z,57.21
2022-10-11T17:46:32.356Z,57.71
2022-10-11T17:48:59.873Z,57.83
2022-10-11T17:51:28.007Z,57.47
2022-10-11T17:53:56.715Z,57.97
2022-10-11T17:56:28.776Z,58.70
2022-10-11T17:58:58.231Z,59.06
2022-10-11T18:01:27.066Z,58.97
2022-10-11T18:03:55.977Z,58.41
2022-10-11T18:06:23.375Z,58.33
2022-10-11T18:08:50.781Z,58.32
2022-10-11T18:11:20.776Z,58.44
2022-10-11T18:13:48.420Z,58.50
2022-10-11T18:16:16.307Z,60.21
2022-10-11T18:18:43.720Z,61.12
2022-10-11T18:21:12.630Z,60.25
2022-10-11T18:23:40.031Z,60.76
2022-10-11T18:26:11.615Z,60.31
2022-10-11T18:28:40.566Z,60.09
2022-10-11T18:31:12.526Z,60.29
2022-10-11T18:33:41.140Z,60.13
2022-10-11T18:36:10.355Z,59.75
2022-10-11T18:38:39.610Z,59.92
2022-10-11T18:41:07.651Z,60.15
2022-10-11T18:43:35.400Z,60.28
2022-10-11T18:46:06.070Z,60.13
2022-10-11T18:48:33.909Z,60.31
2022-10-11T18:51:05.881Z,60.62
2022-10-11T18:53:33.445Z,60.83
2022-10-11T18:56:00.919Z,60.74
2022-10-11T18:58:29.772Z,60.72
2022-10-11T19:00:57.228Z,61.18
2022-10-11T19:03:25.966Z,61.09
2022-10-11T19:05:53.346Z,61.41
2022-10-11T19:08:20.755Z,61.12
2022-10-11T19:10:48.144Z,61.18
2022-10-11T19:13:15.576Z,61.62
2022-10-11T19:15:42.969Z,61.70
2022-10-11T19:18:13.432Z,61.56
2022-10-11T19:20:42.841Z,61.90
2022-10-11T19:23:10.221Z,61.88
2022-10-11T19:25:37.789Z,61.91
2022-10-11T19:28:05.387Z,61.82
2022-10-11T19:30:33.176Z,61.83
2022-10-11T19:33:00.733Z,61.74
2022-10-11T19:35:28.117Z,62.14
2022-10-11T19:37:56.782Z,61.94
2022-10-11T19:40:24.178Z,61.94
2022-10-11T19:42:51.552Z,62.38
2022-10-11T19:45:18.943Z,62.14
2022-10-11T19:47:46.322Z,62.56
2022-10-11T19:50:13.704Z,62.98
2022-10-11T19:52:44.788Z,62.92
2022-10-11T19:55:13.761Z,62.92
2022-10-11T19:57:41.134Z,63.12
2022-10-11T20:00:10.032Z,62.98
2022-10-11T20:02:37.424Z,62.93
2022-10-11T20:05:05.116Z,63.10
2022-10-11T20:07:32.779Z,63.02
2022-10-11T20:10:00.369Z,63.05
2022-10-11T20:12:29.602Z,63.22
2022-10-11T20:14:57.109Z,63.01
2022-10-11T20:17:44.502Z,62.94
2022-10-11T20:20:11.968Z,63.12
2022-10-11T20:22:39.351Z,63.42
2022-10-11T20:25:07.575Z,63.31
2022-10-11T20:27:36.248Z,63.41
2022-10-11T20:30:04.010Z,63.25
2022-10-11T20:32:31.380Z,63.75
2022-10-11T20:34:58.774Z,63.43
2022-10-11T20:37:26.178Z,63.38
2022-10-11T20:39:53.565Z,63.42
2022-10-11T20:42:20.949Z,63.48
2022-10-11T20:44:49.641Z,63.60
2022-10-11T20:47:17.034Z,63.68
2022-10-11T20:49:44.429Z,63.92
2022-10-11T20:52:11.807Z,63.71
2022-10-11T20:54:41.433Z,63.84
2022-10-11T20:57:08.863Z,63.64
2022-10-11T20:59:36.268Z,63.81
2022-10-11T21:02:04.927Z,63.99
2022-10-11T21:04:32.305Z,63.78
2022-10-11T21:06:59.683Z,63.91
2022-10-11T21:09:27.074Z,63.88
2022-10-11T21:11:54.482Z,64.22
2022-10-11T21:14:21.868Z,64.09
2022-10-11T21:16:49.235Z,64.26
2022-10-11T21:19:17.896Z,64.01
2022-10-11T21:21:50.894Z,64.47
2022-10-11T21:24:20.043Z,64.43
2022-10-11T21:26:47.723Z,64.53
2022-10-11T21:29:15.256Z,64.50
2022-10-11T21:31:42.634Z,64.58
2022-10-11T21:34:10.047Z,64.74
2022-10-11T21:36:38.708Z,64.50
2022-10-11T21:39:06.099Z,65.07
2022-10-11T21:41:33.966Z,65.12
2022-10-11T21:44:01.591Z,65.18
2022-10-11T21:46:54.121Z,65.22
2022-10-11T21:49:17.341Z,65.13
2022-10-11T21:51:46.017Z,65.29
2022-10-11T21:54:13.450Z,65.37
2022-10-11T21:56:40.833Z,65.51
2022-10-11T21:59:11.237Z,65.74
2022-10-11T22:01:40.152Z,65.62
2022-10-11T22:04:08.386Z,65.71
2022-10-11T22:06:35.788Z,65.91
2022-10-11T22:09:04.680Z,65.64
2022-10-11T22:11:32.055Z,66.02
2022-10-11T22:13:59.437Z,66.10
2022-10-11T22:16:26.827Z,65.67
2022-10-11T22:18:54.241Z,66.00
2022-10-11T22:21:22.480Z,65.95
2022-10-11T22:23:51.145Z,66.22
2022-10-11T22:26:21.017Z,65.86
2022-10-11T22:28:48.572Z,65.76
2022-10-11T22:31:16.458Z,65.87
2022-10-11T22:36:18.859Z,66.09
2022-10-11T22:38:46.277Z,66.13
2022-10-11T22:41:13.709Z,66.26
2022-10-11T22:43:42.462Z,66.22
2022-10-11T22:46:09.842Z,65.91
2022-10-11T22:48:37.249Z,66.00
2022-10-11T22:51:04.728Z,66.08
2022-10-11T22:53:32.172Z,66.21
2022-10-11T22:56:00.139Z,65.79
2022-10-11T22:58:27.540Z,66.10
2022-10-11T23:00:56.197Z,66.30
2022-10-11T23:03:23.705Z,66.22
2022-10-11T23:05:54.964Z,66.22
2022-10-11T23:08:22.357Z,66.13
2022-10-11T23:10:49.739Z,66.22
2022-10-11T23:13:17.136Z,66.01
2022-10-11T23:15:44.507Z,65.99
2022-10-11T23:18:13.305Z,65.67
2022-10-11T23:20:40.697Z,65.87
2022-10-11T23:23:08.112Z,65.69
2022-10-11T23:25:35.557Z,65.75
2022-10-11T23:28:02.979Z,65.57
2022-10-11T23:30:30.365Z,65.81
2022-10-11T23:32:57.756Z,65.96
2022-10-11T23:35:26.412Z,65.59
2022-10-11T23:37:53.912Z,65.71
2022-10-11T23:40:21.355Z,66.69
2022-10-11T23:42:48.747Z,66.22
2022-10-11T23:45:16.260Z,66.03
2022-10-11T23:47:43.664Z,66.37
2022-10-11T23:50:11.116Z,66.18
2022-10-11T23:52:39.824Z,66.32
2022-10-11T23:55:07.448Z,66.17
2022-10-11T23:57:35.036Z,66.19
